Time;durP1;ratioP1;P1;durP2;ratioP2;P2;SDS_P1;SDS_P2;PMS_P1;PMS_P2;Temp;Humidity;BMP_temperature;BMP_pressure;BME280_temperature;BME280_humidity;BME280_pressure;Samples;Min_cycle;Max_cycle;Signal;HPM_P1;HPM_P2
2023/07/26 00:00:02;;;;;;;;;4.00;4.00;;;;;18.86;48.29;100957.09;5029100;28;47074;-69
2023/07/26 00:02:28;;;;;;;;;6.00;5.00;;;;;18.86;48.67;100958.00;5027376;28;45267;-69
2023/07/26 00:04:53;;;;;;;;;5.33;5.00;;;;;18.86;48.60;100963.41;5031867;28;46434;-69
2023/07/26 00:07:18;;;;;;;;;5.00;3.00;;;;;18.77;48.67;100952.59;5029625;28;44962;-68
2023/07/26 00:09:44;;;;;;;;;5.00;3.67;;;;;18.78;48.59;100960.69;5005266;28;47495;-69
2023/07/26 00:12:09;;;;;;;;;3.33;2.67;;;;;18.83;48.85;100959.81;5031806;28;44945;-68
2023/07/26 00:14:34;;;;;;;;;4.00;2.00;;;;;18.82;48.43;100957.97;5035304;28;45432;-68
2023/07/26 00:17:00;;;;;;;;;4.00;4.00;;;;;18.68;48.58;100944.53;5034335;28;45159;-69
2023/07/26 00:19:25;;;;;;;;;6.00;4.00;;;;;18.74;48.70;100956.22;5027248;28;47224;-69
2023/07/26 00:21:50;;;;;;;;;3.67;3.00;;;;;18.57;48.51;100934.59;5033913;28;45255;-67
2023/07/26 00:24:16;;;;;;;;;5.00;4.00;;;;;18.63;48.88;100946.31;5034672;28;45087;-69
2023/07/26 00:26:41;;;;;;;;;2.33;2.33;;;;;18.68;48.62;100969.78;5033607;28;45254;-70
2023/07/26 00:29:07;;;;;;;;;5.33;2.33;;;;;18.65;49.02;100967.06;5033881;28;46148;-68
2023/07/26 00:31:32;;;;;;;;;4.00;2.33;;;;;18.64;48.97;100965.25;5039493;28;45158;-68
2023/07/26 00:33:57;;;;;;;;;3.00;3.00;;;;;18.62;49.04;100969.78;5072870;28;45616;-68
2023/07/26 00:36:23;;;;;;;;;5.33;3.00;;;;;18.59;49.11;100962.59;5055968;28;45310;-68
2023/07/26 00:38:48;;;;;;;;;4.00;3.33;;;;;18.57;49.02;100958.97;5073185;28;52184;-68
2023/07/26 00:41:13;;;;;;;;;2.67;2.67;;;;;18.61;49.21;100973.41;5073857;28;45057;-69
2023/07/26 00:43:39;;;;;;;;;3.33;3.33;;;;;18.52;48.51;100957.19;5073307;28;45216;-69
2023/07/26 00:46:06;;;;;;;;;2.33;2.33;;;;;18.51;49.11;100966.19;5073829;28;45248;-69
2023/07/26 00:48:32;;;;;;;;;2.00;2.00;;;;;18.46;49.24;100966.22;5073668;28;45136;-69
2023/07/26 00:50:59;;;;;;;;;3.00;2.00;;;;;18.45;49.23;100967.13;5073087;28;45052;-69
2023/07/26 00:53:26;;;;;;;;;3.33;2.00;;;;;18.44;49.35;100962.63;5073355;28;45350;-69
2023/07/26 00:55:53;;;;;;;;;5.33;4.00;;;;;18.40;49.17;100960.84;5071611;28;45084;-67
2023/07/26 00:58:19;;;;;;;;;3.00;3.00;;;;;18.41;49.20;100960.84;5073129;28;45199;-67
2023/07/26 01:00:45;;;;;;;;;2.33;2.33;;;;;18.44;49.17;100970.72;5073380;28;45277;-68
2023/07/26 01:03:10;;;;;;;;;4.00;4.00;;;;;18.45;49.16;100968.94;5073062;28;45048;-67
2023/07/26 01:06:15;;;;;;;;;4.00;2.67;;;;;18.41;49.17;100970.72;5073520;28;45227;-68
2023/07/26 01:09:07;;;;;;;;;3.33;2.00;;;;;18.39;48.92;100969.84;5071800;28;46022;-68
2023/07/26 01:11:57;;;;;;;;;2.00;1.67;;;;;18.38;48.97;100962.66;5053025;28;45437;-68
2023/07/26 01:14:34;;;;;;;;;3.00;3.00;;;;;18.36;48.84;100965.38;5072650;28;45026;-67
2023/07/26 01:17:00;;;;;;;;;2.67;2.67;;;;;18.35;48.87;100962.66;5065281;28;45179;-69
2023/07/26 01:19:27;;;;;;;;;3.00;2.00;;;;;18.31;49.19;100960.84;5073000;28;45881;-69
2023/07/26 01:21:53;;;;;;;;;2.00;2.00;;;;;18.30;49.34;100959.97;5071188;28;45407;-69
2023/07/26 01:24:18;;;;;;;;;3.00;3.00;;;;;18.22;49.46;100946.44;5071136;28;55709;-67
2023/07/26 01:26:43;;;;;;;;;3.00;3.00;;;;;18.32;49.48;100960.84;5071798;28;49389;-68
2023/07/26 01:29:09;;;;;;;;;3.00;3.00;;;;;18.30;49.05;100962.66;5069326;28;45600;-69
2023/07/26 01:31:35;;;;;;;;;3.00;2.67;;;;;18.29;48.90;100960.84;5068986;28;44929;-69
2023/07/26 01:34:01;;;;;;;;;6.00;3.00;;;;;18.32;48.82;100962.66;5069184;28;44866;-69
2023/07/26 01:36:29;;;;;;;;;2.00;2.00;;;;;18.31;49.17;100956.31;5071814;28;45412;-68
2023/07/26 01:38:56;;;;;;;;;4.00;2.00;;;;;18.30;48.98;100954.53;5071391;28;45418;-68
2023/07/26 01:41:23;;;;;;;;;1.00;1.00;;;;;18.28;49.03;100953.66;5054157;28;45368;-68
2023/07/26 01:43:48;;;;;;;;;2.00;2.00;;;;;18.28;49.06;100955.44;5072308;28;45060;-68
2023/07/26 01:46:14;;;;;;;;;2.00;2.00;;;;;18.25;49.06;100948.25;5070643;28;45267;-68
2023/07/26 01:48:40;;;;;;;;;1.00;1.00;;;;;18.22;49.48;100951.84;5071168;28;45639;-68
2023/07/26 01:51:06;;;;;;;;;3.67;3.00;;;;;18.21;49.22;100951.84;5072436;28;45316;-69
2023/07/26 01:53:33;;;;;;;;;3.33;3.33;;;;;18.17;49.59;100941.97;5048211;28;45025;-67
2023/07/26 01:55:59;;;;;;;;;3.00;3.00;;;;;18.23;49.47;100952.75;5072552;28;45149;-69
2023/07/26 01:58:24;;;;;;;;;2.00;2.00;;;;;18.21;49.49;100950.06;5070776;28;46139;-70
2023/07/26 02:00:50;;;;;;;;;1.33;1.33;;;;;18.24;49.59;100950.03;5067673;28;45147;-66
2023/07/26 02:03:15;;;;;;;;;4.00;2.33;;;;;18.24;49.28;100947.31;5072774;28;45065;-68
2023/07/26 02:05:44;;;;;;;;;3.33;3.33;;;;;18.21;49.64;100951.84;5073114;28;45120;-69
2023/07/26 02:08:10;;;;;;;;;4.00;2.33;;;;;18.19;49.50;100948.25;5072023;28;45049;-69
2023/07/26 02:10:35;;;;;;;;;1.00;1.00;;;;;18.09;49.84;100941.06;5072427;28;45043;-68
2023/07/26 02:13:01;;;;;;;;;4.00;2.33;;;;;18.13;50.03;100945.56;5072836;28;45129;-69
2023/07/26 02:15:26;;;;;;;;;4.00;1.67;;;;;18.11;49.68;100942.84;5072866;28;45075;-69
2023/07/26 02:17:51;;;;;;;;;8.00;2.67;;;;;18.09;49.79;100935.66;5069862;28;46027;-69
2023/07/26 02:20:17;;;;;;;;;1.67;1.00;;;;;18.04;49.87;100928.44;5071830;28;45423;-69
2023/07/26 02:22:42;;;;;;;;;2.33;2.00;;;;;18.16;49.81;100946.44;5072007;28;45260;-68
2023/07/26 02:25:08;;;;;;;;;2.67;2.00;;;;;17.82;49.59;100900.50;5071951;28;45024;-69
2023/07/26 02:27:33;;;;;;;;;2.00;2.00;;;;;18.23;49.45;100950.03;5071592;28;45599;-69
2023/07/26 02:29:58;;;;;;;;;2.33;2.00;;;;;18.24;49.47;100947.31;5068585;28;45584;-69
2023/07/26 02:32:24;;;;;;;;;2.00;1.67;;;;;18.21;49.73;100946.44;5071383;28;45041;-68
2023/07/26 02:34:49;;;;;;;;;3.00;3.00;;;;;18.27;49.05;100950.94;5067424;28;45494;-68
2023/07/26 02:37:14;;;;;;;;;2.00;2.00;;;;;18.27;49.53;100953.66;5053579;28;47199;-69
2023/07/26 02:39:40;;;;;;;;;4.00;3.00;;;;;18.27;49.63;100959.06;5071043;28;45173;-68
2023/07/26 02:42:05;;;;;;;;;4.33;3.00;;;;;18.26;49.70;100952.75;5066219;28;51231;-67
2023/07/26 02:44:30;;;;;;;;;2.67;2.67;;;;;18.27;49.67;100943.72;5070955;28;45385;-69
2023/07/26 02:46:56;;;;;;;;;3.00;3.00;;;;;18.26;49.98;100941.03;5070647;28;45139;-69
2023/07/26 02:49:21;;;;;;;;;3.00;3.00;;;;;18.24;50.06;100947.31;5069151;28;45225;-69
2023/07/26 02:51:47;;;;;;;;;3.00;3.00;;;;;18.18;50.14;100941.97;5071045;28;44929;-69
2023/07/26 02:54:12;;;;;;;;;3.00;3.00;;;;;18.16;50.24;100941.03;5071233;28;45117;-69
2023/07/26 02:56:37;;;;;;;;;2.33;2.33;;;;;18.17;50.26;100942.84;5070868;28;46026;-69
2023/07/26 02:59:03;;;;;;;;;3.00;2.00;;;;;18.21;50.50;100947.38;5071656;28;44959;-69
2023/07/26 03:01:28;;;;;;;;;3.00;2.67;;;;;17.98;50.19;100914.97;5070319;28;45322;-69
2023/07/26 03:03:53;;;;;;;;;2.33;2.33;;;;;18.17;50.30;100944.66;5054406;28;44965;-69
2023/07/26 03:06:19;;;;;;;;;2.00;2.00;;;;;18.15;50.52;100950.06;5051818;28;47393;-71
2023/07/26 03:08:44;;;;;;;;;3.00;2.00;;;;;18.05;50.18;100924.84;5070920;28;47176;-69
2023/07/26 03:11:09;;;;;;;;;6.00;3.00;;;;;18.13;50.53;100946.47;5070712;28;45300;-69
2023/07/26 03:13:35;;;;;;;;;5.67;3.67;;;;;18.09;50.50;100943.78;5069778;28;45310;-69
2023/07/26 03:16:00;;;;;;;;;2.67;2.67;;;;;18.09;50.71;100944.66;5071035;28;45454;-69
2023/07/26 03:18:25;;;;;;;;;4.33;4.00;;;;;18.11;51.01;100942.84;5068989;28;49478;-69
2023/07/26 03:20:51;;;;;;;;;2.33;2.00;;;;;18.11;50.90;100953.66;5071680;28;45252;-69
2023/07/26 03:23:16;;;;;;;;;2.00;2.00;;;;;18.08;50.81;100947.38;5072138;28;45270;-68
2023/07/26 03:25:42;;;;;;;;;3.33;2.00;;;;;17.99;51.16;100942.88;5069766;28;45727;-70
2023/07/26 03:28:07;;;;;;;;;4.00;3.00;;;;;17.96;51.35;100942.88;5070325;28;44980;-70
2023/07/26 03:30:33;;;;;;;;;4.00;3.67;;;;;18.07;51.18;100961.81;5070072;28;45202;-68
2023/07/26 03:32:58;;;;;;;;;3.00;3.00;;;;;18.07;51.38;100970.81;5071302;28;45098;-68
2023/07/26 03:35:24;;;;;;;;;7.33;3.33;;;;;18.04;51.30;100966.28;5070826;28;53734;-71
2023/07/26 03:37:49;;;;;;;;;4.33;2.67;;;;;18.02;51.79;100964.50;5070548;28;45318;-69
2023/07/26 03:40:14;;;;;;;;;2.00;2.00;;;;;17.97;51.70;100967.22;5071005;28;45244;-70
2023/07/26 03:42:40;;;;;;;;;2.67;1.00;;;;;17.97;51.94;100971.72;5069559;28;44929;-69
2023/07/26 03:45:06;;;;;;;;;2.00;2.00;;;;;17.96;52.22;100972.63;5053313;28;46659;-69
2023/07/26 03:47:31;;;;;;;;;4.00;4.00;;;;;17.89;52.91;100965.41;5071813;28;45236;-69
2023/07/26 03:49:59;;;;;;;;;4.00;4.00;;;;;17.84;53.17;100966.28;5073887;28;45479;-69
2023/07/26 03:52:24;;;;;;;;;6.33;6.33;;;;;17.87;53.47;100973.53;5071573;28;45105;-70
2023/07/26 03:54:50;;;;;;;;;2.67;2.67;;;;;17.86;53.23;100972.56;5073704;28;45155;-67
2023/07/26 03:57:16;;;;;;;;;4.00;3.00;;;;;17.78;53.13;100957.25;5073611;28;45045;-69
2023/07/26 03:59:41;;;;;;;;;3.67;3.67;;;;;17.87;53.53;100968.13;5071415;28;45173;-69
2023/07/26 04:02:08;;;;;;;;;4.33;3.00;;;;;17.83;53.54;100958.16;5073567;28;46180;-69
2023/07/26 04:04:33;;;;;;;;;4.33;4.33;;;;;17.83;53.51;100955.47;5074652;28;45336;-69
2023/07/26 04:06:58;;;;;;;;;3.67;2.67;;;;;17.86;53.55;100961.75;5073788;28;45171;-69
2023/07/26 04:09:24;;;;;;;;;4.00;2.00;;;;;17.88;53.86;100959.09;5073542;28;46413;-68
2023/07/26 04:11:54;;;;;;;;;4.00;3.00;;;;;17.79;53.81;100938.34;5069973;28;45376;-68
2023/07/26 04:14:19;;;;;;;;;4.00;4.00;;;;;17.88;54.25;100964.50;5072194;28;45423;-69
2023/07/26 04:16:45;;;;;;;;;4.33;4.33;;;;;17.89;54.08;100962.72;5054100;28;45283;-69
2023/07/26 04:19:10;;;;;;;;;4.00;4.00;;;;;17.90;54.58;100960.00;5074387;28;45044;-68
2023/07/26 04:21:35;;;;;;;;;5.33;4.00;;;;;17.88;54.27;100959.09;5072399;28;45078;-67
2023/07/26 04:24:00;;;;;;;;;4.00;4.00;;;;;17.90;54.99;100951.91;5072665;28;46274;-69
2023/07/26 04:26:26;;;;;;;;;4.33;3.00;;;;;17.94;54.63;100969.03;5073499;28;45209;-70
2023/07/26 04:28:51;;;;;;;;;6.00;6.00;;;;;17.85;54.59;100946.47;5072938;28;45491;-70
2023/07/26 04:31:16;;;;;;;;;5.33;3.67;;;;;17.93;54.58;100959.09;5073986;28;45261;-70
2023/07/26 04:33:42;;;;;;;;;5.33;4.00;;;;;17.91;55.46;100960.91;5068232;28;46218;-70
2023/07/26 04:36:07;;;;;;;;;3.00;3.00;;;;;17.86;55.36;100953.66;5071212;28;44958;-69
2023/07/26 04:38:32;;;;;;;;;5.00;3.67;;;;;17.84;55.42;100950.06;5069580;28;45287;-70
2023/07/26 04:40:58;;;;;;;;;4.00;4.00;;;;;17.85;55.34;100953.66;5074583;28;45187;-71
2023/07/26 04:43:23;;;;;;;;;3.33;3.33;;;;;17.82;55.43;100951.88;5073097;28;48468;-70
2023/07/26 04:45:50;;;;;;;;;3.00;3.00;;;;;17.89;55.69;100957.31;5073051;28;44945;-70
2023/07/26 04:48:16;;;;;;;;;5.00;5.00;;;;;17.94;55.31;100964.50;5073859;28;45346;-70
2023/07/26 04:50:43;;;;;;;;;4.00;4.00;;;;;17.94;55.45;100969.91;5072061;28;45365;-70
2023/07/26 04:53:08;;;;;;;;;4.67;4.00;;;;;17.94;55.20;100961.81;5055809;28;46091;-70
2023/07/26 04:55:46;;;;;;;;;5.33;4.33;;;;;17.96;55.36;100967.22;5074091;28;45004;-69
2023/07/26 04:58:12;;;;;;;;;4.00;4.00;;;;;17.90;55.61;100961.78;5035779;28;45277;-69
2023/07/26 05:00:39;;;;;;;;;5.00;5.00;;;;;17.96;55.64;100972.63;5070339;28;45372;-69
2023/07/26 05:03:04;;;;;;;;;4.00;4.00;;;;;17.97;55.54;100977.13;5072503;28;45827;-69
2023/07/26 05:05:30;;;;;;;;;6.33;4.33;;;;;17.95;55.70;100969.03;5069709;28;45177;-70
2023/07/26 05:07:55;;;;;;;;;6.67;5.67;;;;;17.93;55.43;100975.31;5054148;28;45198;-69
2023/07/26 05:10:21;;;;;;;;;6.67;5.33;;;;;17.91;56.28;100977.13;5072261;28;49546;-69
2023/07/26 05:12:46;;;;;;;;;4.00;4.00;;;;;17.91;55.96;100971.72;5073347;28;46484;-68
2023/07/26 05:15:12;;;;;;;;;5.00;3.33;;;;;17.53;56.29;100911.31;5072454;28;45062;-70
2023/07/26 05:17:37;;;;;;;;;3.33;3.33;;;;;17.87;56.12;100965.41;5073303;28;45116;-70
2023/07/26 05:20:03;;;;;;;;;3.67;3.67;;;;;17.92;56.41;100976.19;5073928;28;45323;-68
2023/07/26 05:22:28;;;;;;;;;6.33;5.33;;;;;17.85;56.62;100973.50;5072806;28;45788;-70
2023/07/26 05:24:53;;;;;;;;;5.67;4.00;;;;;17.90;56.70;100975.31;5073096;28;45132;-72
2023/07/26 05:27:19;;;;;;;;;7.00;5.67;;;;;17.91;56.45;100982.53;5071995;28;45206;-71
2023/07/26 05:29:44;;;;;;;;;13.00;6.33;;;;;17.90;56.94;100981.63;5054534;28;45313;-70
2023/07/26 05:32:09;;;;;;;;;7.00;5.00;;;;;17.89;57.52;100987.03;5069326;28;45442;-69
2023/07/26 05:34:35;;;;;;;;;6.00;5.00;;;;;17.84;58.10;100981.59;5070610;28;45102;-69
2023/07/26 05:37:01;;;;;;;;;5.00;5.00;;;;;17.79;58.35;100986.09;5072699;28;45186;-69
2023/07/26 05:39:27;;;;;;;;;5.67;5.33;;;;;17.76;58.92;100984.28;5071942;28;45463;-68
2023/07/26 05:41:52;;;;;;;;;4.67;3.67;;;;;17.80;58.86;100996.00;5070825;28;45099;-70
2023/07/26 05:44:21;;;;;;;;;8.00;6.00;;;;;17.79;59.19;100995.09;5069345;28;45421;-69
2023/07/26 05:46:46;;;;;;;;;4.00;4.00;;;;;17.71;59.88;100988.78;5073311;28;45145;-69
2023/07/26 05:49:11;;;;;;;;;5.67;4.00;;;;;17.80;59.96;100991.50;5072062;28;45083;-70
2023/07/26 05:51:36;;;;;;;;;6.00;5.00;;;;;17.77;60.43;100996.91;5069529;28;46879;-70
2023/07/26 05:54:02;;;;;;;;;6.00;4.67;;;;;17.79;60.88;101003.22;5070480;28;45206;-68
2023/07/26 05:56:27;;;;;;;;;6.00;5.00;;;;;17.80;60.84;101004.09;5072015;28;45512;-69
2023/07/26 05:58:53;;;;;;;;;8.67;5.67;;;;;17.78;60.90;101012.22;5068704;28;45271;-69
2023/07/26 06:01:18;;;;;;;;;4.67;4.67;;;;;17.81;61.28;101012.22;5048299;28;47385;-68
2023/07/26 06:03:45;;;;;;;;;8.33;6.67;;;;;17.82;61.62;101026.66;5051440;28;46493;-68
2023/07/26 06:06:10;;;;;;;;;9.67;8.67;;;;;17.73;61.21;101014.00;5051849;28;45080;-68
2023/07/26 06:08:36;;;;;;;;;7.00;4.33;;;;;17.76;62.23;101021.22;5073007;28;45088;-68
2023/07/26 06:11:01;;;;;;;;;3.33;3.33;;;;;17.75;62.10;101022.13;5070639;28;45346;-68
2023/07/26 06:13:26;;;;;;;;;6.67;5.67;;;;;17.81;62.26;101030.25;5071957;28;45288;-68
2023/07/26 06:15:52;;;;;;;;;7.33;6.00;;;;;17.50;61.97;100979.78;5071059;28;45135;-70
2023/07/26 06:18:17;;;;;;;;;8.33;7.33;;;;;17.86;61.92;101037.44;5068328;28;45325;-70
2023/07/26 06:20:42;;;;;;;;;5.00;4.00;;;;;17.82;61.77;101018.53;5070124;28;45236;-69
2023/07/26 06:23:08;;;;;;;;;8.67;7.00;;;;;17.78;61.68;101020.31;5070122;28;45075;-70
2023/07/26 06:25:33;;;;;;;;;4.67;4.67;;;;;17.80;61.91;101040.16;5071464;28;45334;-69
2023/07/26 06:27:59;;;;;;;;;11.00;10.00;;;;;17.81;62.08;101043.75;5048342;28;45272;-68
2023/07/26 06:30:24;;;;;;;;;8.67;5.33;;;;;17.85;61.87;101042.84;5066709;28;45521;-68
2023/07/26 06:32:50;;;;;;;;;7.00;5.67;;;;;17.79;61.99;101034.75;5068918;28;45195;-70
2023/07/26 06:35:17;;;;;;;;;8.33;5.33;;;;;17.84;62.03;101044.66;5050529;28;45068;-69
2023/07/26 06:37:42;;;;;;;;;5.00;4.67;;;;;17.80;62.17;101045.56;5070063;28;45162;-68
2023/07/26 06:40:08;;;;;;;;;7.33;6.33;;;;;17.88;61.87;101052.81;5067007;28;45633;-69
2023/07/26 06:42:33;;;;;;;;;6.00;5.00;;;;;17.86;61.88;101041.94;5070550;28;45245;-71
2023/07/26 06:44:59;;;;;;;;;9.33;7.00;;;;;17.89;62.00;101051.91;5068923;28;45044;-70
2023/07/26 06:47:24;;;;;;;;;6.33;5.00;;;;;17.85;61.87;101048.25;5050500;28;45382;-69
2023/07/26 06:49:49;;;;;;;;;6.33;6.33;;;;;17.86;62.25;101058.16;5066856;28;45756;-70
2023/07/26 06:52:16;;;;;;;;;6.33;6.33;;;;;17.90;62.24;101051.00;5070908;28;45183;-69
2023/07/26 06:54:41;;;;;;;;;6.33;5.67;;;;;17.82;61.81;101043.75;5063814;28;45261;-70
2023/07/26 06:57:09;;;;;;;;;5.00;5.00;;;;;17.86;61.72;101056.34;5061627;28;45225;-71
2023/07/26 06:59:35;;;;;;;;;6.33;6.33;;;;;17.91;61.90;101050.09;5045768;28;47450;-70
2023/07/26 07:02:00;;;;;;;;;7.00;5.67;;;;;17.94;61.83;101053.72;5061399;28;45213;-71
2023/07/26 07:04:26;;;;;;;;;6.33;6.33;;;;;17.94;62.09;101047.41;5064643;28;44998;-71
2023/07/26 07:06:51;;;;;;;;;7.00;7.00;;;;;17.98;61.91;101057.31;5043179;28;45222;-72
2023/07/26 07:09:17;;;;;;;;;4.33;4.00;;;;;18.00;61.63;101045.63;5060832;28;45701;-72
2023/07/26 07:11:43;;;;;;;;;11.67;7.00;;;;;18.09;61.69;101052.81;5047989;28;45192;-71
2023/07/26 07:14:09;;;;;;;;;9.33;6.00;;;;;18.09;61.83;101025.78;5053525;28;46439;-70
2023/07/26 07:16:34;;;;;;;;;8.33;6.67;;;;;18.26;61.81;101032.97;5067054;28;45178;-70
2023/07/26 07:19:00;;;;;;;;;7.00;6.00;;;;;18.36;61.41;101030.28;5047693;28;46499;-71
2023/07/26 07:21:25;;;;;;;;;12.67;11.67;;;;;18.60;61.05;101050.06;5068825;28;50101;-73
2023/07/26 07:23:50;;;;;;;;;7.33;6.00;;;;;18.73;60.88;101056.38;5069859;28;45771;-71
2023/07/26 07:26:17;;;;;;;;;6.67;6.00;;;;;18.77;60.46;101047.31;5048901;28;45496;-70
2023/07/26 07:28:42;;;;;;;;;7.00;7.00;;;;;18.86;60.21;101057.25;5061899;28;45238;-70
2023/07/26 07:31:08;;;;;;;;;8.33;6.00;;;;;18.89;60.36;101052.75;5067636;28;45137;-71
2023/07/26 07:33:33;;;;;;;;;25.00;20.00;;;;;18.99;59.76;101050.91;5067382;28;45016;-71
2023/07/26 07:35:59;;;;;;;;;14.00;11.00;;;;;19.11;59.36;101050.84;5064746;28;46157;-70
2023/07/26 07:38:25;;;;;;;;;11.67;7.00;;;;;19.27;58.67;101061.63;5067128;28;47072;-70
2023/07/26 07:40:50;;;;;;;;;8.00;8.00;;;;;19.33;58.79;101053.47;5046017;28;45256;-71
2023/07/26 07:43:15;;;;;;;;;11.33;10.00;;;;;19.43;58.43;101057.94;5070648;28;45120;-70
2023/07/26 07:45:42;;;;;;;;;10.33;5.67;;;;;19.51;58.08;101045.22;5051104;28;45190;-70
2023/07/26 07:48:08;;;;;;;;;5.33;5.33;;;;;19.60;57.28;101048.81;5068817;28;45398;-71
2023/07/26 07:50:34;;;;;;;;;11.00;8.67;;;;;19.66;57.40;101046.06;5070343;28;45257;-71
2023/07/26 07:52:59;;;;;;;;;10.33;5.67;;;;;19.72;57.05;101039.72;5069284;28;45122;-71
2023/07/26 07:55:24;;;;;;;;;8.67;5.33;;;;;19.81;56.71;101034.25;5070979;28;45183;-71
2023/07/26 07:57:50;;;;;;;;;6.00;6.00;;;;;19.89;56.30;101024.25;5067560;28;58749;-70
2023/07/26 08:00:15;;;;;;;;;9.33;5.67;;;;;20.03;55.64;101035.00;5061541;28;45336;-71
2023/07/26 08:02:41;;;;;;;;;6.33;4.00;;;;;19.93;55.50;101001.63;5064669;28;45278;-71
2023/07/26 08:05:06;;;;;;;;;8.00;4.33;;;;;20.14;55.25;101030.34;5068551;28;44990;-71
2023/07/26 08:07:32;;;;;;;;;6.67;6.00;;;;;20.18;54.55;101040.28;5063378;28;45531;-71
2023/07/26 08:09:57;;;;;;;;;3.00;3.00;;;;;20.23;54.84;101037.53;5067848;28;45060;-72
2023/07/26 08:12:23;;;;;;;;;5.33;4.00;;;;;19.78;53.49;100966.47;5068042;28;45209;-71
2023/07/26 08:14:50;;;;;;;;;6.33;4.67;;;;;20.11;53.66;101040.34;5065279;28;45040;-71
2023/07/26 08:17:15;;;;;;;;;6.00;4.00;;;;;19.97;53.88;101057.63;5069458;28;45153;-71
2023/07/26 08:19:41;;;;;;;;;6.00;4.33;;;;;19.89;54.17;101046.81;5064233;28;44988;-72
2023/07/26 08:22:06;;;;;;;;;4.67;3.67;;;;;19.82;54.01;101030.63;5066384;28;45139;-70
2023/07/26 08:24:32;;;;;;;;;7.00;4.00;;;;;19.91;53.94;101043.22;5064281;28;45123;-72
2023/07/26 08:26:58;;;;;;;;;6.67;6.33;;;;;19.84;54.00;101024.28;5044290;28;47287;-70
2023/07/26 08:29:24;;;;;;;;;5.67;5.67;;;;;20.01;53.88;101036.81;5060913;28;45057;-71
2023/07/26 08:31:49;;;;;;;;;7.33;7.33;;;;;20.09;53.84;101034.03;5068213;28;45037;-64
2023/07/26 08:34:15;;;;;;;;;6.67;4.00;;;;;20.12;53.26;101032.19;5071434;28;45266;-66
2023/07/26 08:36:40;;;;;;;;;4.00;4.00;;;;;20.18;53.26;101037.56;5072373;28;45452;-67
2023/07/26 08:39:05;;;;;;;;;5.33;3.00;;;;;20.21;52.51;101032.13;5070803;28;45136;-66
2023/07/26 08:41:31;;;;;;;;;6.67;4.00;;;;;20.34;52.53;101040.13;5047522;28;45430;-66
2023/07/26 08:44:00;;;;;;;;;5.00;5.00;;;;;20.50;52.25;101047.22;5066420;28;45445;-64
2023/07/26 08:46:27;;;;;;;;;3.67;3.00;;;;;20.67;51.16;101054.31;5072147;28;45278;-65
2023/07/26 08:48:53;;;;;;;;;4.33;2.33;;;;;20.72;50.36;101047.94;5049074;28;46349;-69
2023/07/26 08:51:20;;;;;;;;;3.00;3.00;;;;;20.65;49.95;101040.78;5071233;28;45171;-66
2023/07/26 08:53:48;;;;;;;;;5.33;4.00;;;;;20.64;50.08;101052.56;5070032;28;46360;-66
2023/07/26 08:56:15;;;;;;;;;6.67;4.00;;;;;20.56;49.55;101040.84;5069351;28;45579;-67
2023/07/26 08:58:40;;;;;;;;;3.67;3.67;;;;;20.65;49.93;101048.03;5070163;28;45202;-65
2023/07/26 09:01:06;;;;;;;;;6.00;3.67;;;;;20.76;49.27;101040.66;5068004;28;45597;-66
2023/07/26 09:03:32;;;;;;;;;2.00;2.00;;;;;20.82;48.37;101039.69;5068249;28;45541;-67
2023/07/26 09:06:06;;;;;;;;;3.00;3.00;;;;;20.72;45.53;101033.47;5064841;28;45516;-65
2023/07/26 09:08:32;;;;;;;;;4.67;3.67;;;;;20.85;46.03;101034.22;5068780;28;45276;-65
2023/07/26 09:10:57;;;;;;;;;4.00;3.00;;;;;20.96;45.82;101021.41;5053832;28;45242;-65
2023/07/26 09:13:22;;;;;;;;;1.67;1.67;;;;;21.06;45.71;101014.06;5072055;28;45251;-65
2023/07/26 09:15:49;;;;;;;;;3.33;3.33;;;;;21.22;44.90;101020.16;5071335;28;45155;-65
2023/07/26 09:18:14;;;;;;;;;2.00;2.00;;;;;21.39;44.13;101029.00;5069668;28;45294;-66
2023/07/26 09:20:40;;;;;;;;;6.00;3.67;;;;;21.46;43.20;101018.94;5067382;28;45108;-69
2023/07/26 09:23:05;;;;;;;;;2.67;2.67;;;;;21.52;43.04;101030.66;5070884;28;45255;-66
2023/07/26 09:25:37;;;;;;;;;4.00;2.00;;;;;21.62;42.29;101015.13;5069948;28;45679;-65
2023/07/26 09:28:03;;;;;;;;;6.67;2.33;;;;;21.73;42.72;101012.25;5067328;28;45361;-67
2023/07/26 09:30:29;;;;;;;;;2.33;2.33;;;;;21.45;42.39;100968.19;5047145;28;45319;-67
2023/07/26 09:32:58;;;;;;;;;2.00;2.00;;;;;21.85;42.82;101022.91;5070818;28;45120;-66
2023/07/26 09:35:23;;;;;;;;;2.00;2.00;;;;;21.89;41.20;101016.53;5048221;28;45651;-67
2023/07/26 09:37:49;;;;;;;;;3.00;3.00;;;;;22.00;40.88;101027.22;5065960;28;45267;-66
2023/07/26 09:40:15;;;;;;;;;3.00;3.00;;;;;22.02;40.99;101028.06;5072256;28;45155;-66
2023/07/26 09:42:44;;;;;;;;;10.33;8.00;;;;;22.14;41.19;101031.50;5070825;28;45327;-65
2023/07/26 09:45:19;;;;;;;;;3.00;3.00;;;;;22.14;41.31;101020.63;5068779;28;45551;-65
2023/07/26 09:47:46;;;;;;;;;2.00;2.00;;;;;22.18;41.63;101025.13;5070861;28;45191;-66
2023/07/26 09:50:30;;;;;;;;;5.00;2.33;;;;;22.17;41.27;101035.06;5067313;28;45330;-67
2023/07/26 09:52:56;;;;;;;;;1.67;1.67;;;;;22.21;41.23;101039.56;5069977;28;45117;-67
2023/07/26 09:55:26;;;;;;;;;6.67;4.00;;;;;22.35;40.97;101041.16;5072323;28;45138;-66
2023/07/26 09:57:53;;;;;;;;;3.00;3.00;;;;;22.38;40.42;101035.69;5052717;28;45194;-67
2023/07/26 10:00:20;;;;;;;;;1.67;1.67;;;;;22.45;39.79;101032.81;5070875;28;45182;-66
2023/07/26 10:02:52;;;;;;;;;3.00;2.00;;;;;22.47;39.37;101040.94;5071275;28;45122;-66
2023/07/26 10:05:19;;;;;;;;;4.33;3.33;;;;;22.52;39.67;101038.13;5071659;28;45830;-70
2023/07/26 10:07:46;;;;;;;;;5.33;2.00;;;;;22.48;40.62;101036.41;5071661;28;45339;-67
2023/07/26 10:10:13;;;;;;;;;3.00;3.00;;;;;22.52;40.91;101046.31;5069478;28;45131;-67
2023/07/26 10:12:40;;;;;;;;;3.00;3.00;;;;;22.59;40.63;101037.13;5052750;28;45176;-66
2023/07/26 10:15:09;;;;;;;;;3.67;3.00;;;;;22.66;39.77;101038.78;5071370;28;45646;-66
2023/07/26 10:17:35;;;;;;;;;2.00;2.00;;;;;22.73;38.97;101040.44;5066112;28;45485;-66
2023/07/26 10:20:02;;;;;;;;;3.00;2.00;;;;;22.72;39.07;101037.75;5049058;28;45087;-66
2023/07/26 10:22:28;;;;;;;;;0.00;0.00;;;;;22.80;39.18;101041.22;5072045;28;45118;-66
2023/07/26 10:24:53;;;;;;;;;2.67;2.00;;;;;22.87;38.72;101036.56;5065815;28;47430;-66
2023/07/26 10:27:19;;;;;;;;;5.00;2.00;;;;;22.98;38.00;101037.25;5051753;28;44909;-65
2023/07/26 10:29:47;;;;;;;;;2.00;2.00;;;;;22.94;38.23;101030.06;5066419;28;45207;-67
2023/07/26 10:32:13;;;;;;;;;11.67;5.67;;;;;22.94;38.27;101040.97;5068432;28;45135;-68
2023/07/26 10:34:38;;;;;;;;;1.00;1.00;;;;;22.93;38.51;101034.63;5069543;28;45470;-67
2023/07/26 10:37:18;;;;;;;;;2.00;2.00;;;;;22.88;38.43;101028.34;5068021;28;45206;-65
2023/07/26 10:39:44;;;;;;;;;5.67;5.00;;;;;22.21;37.86;100927.09;5069248;28;45162;-66
2023/07/26 10:42:29;;;;;;;;;1.00;1.00;;;;;22.79;38.01;101020.38;5047668;28;45293;-65
2023/07/26 10:45:03;;;;;;;;;0.67;0.67;;;;;22.82;37.44;101029.38;5068484;28;45790;-66
2023/07/26 10:47:29;;;;;;;;;5.00;3.33;;;;;22.76;37.59;101013.16;5064868;28;45208;-67
2023/07/26 10:49:57;;;;;;;;;4.33;4.33;;;;;22.90;37.94;101031.03;5065673;28;45170;-65
2023/07/26 10:52:34;;;;;;;;;1.33;1.00;;;;;22.88;37.50;101009.28;5071243;28;45227;-66
2023/07/26 10:54:59;;;;;;;;;2.00;2.00;;;;;23.00;37.00;101016.31;5071339;28;45077;-66
2023/07/26 10:57:28;;;;;;;;;2.33;2.00;;;;;23.15;36.71;101029.66;5066778;28;45309;-66
2023/07/26 10:59:59;;;;;;;;;4.33;4.00;;;;;23.18;36.44;101029.59;5061159;28;45278;-66
2023/07/26 11:02:42;;;;;;;;;2.00;2.00;;;;;23.26;36.47;101020.34;5066127;28;45107;-66
2023/07/26 11:05:11;;;;;;;;;2.33;1.33;;;;;23.30;36.26;101035.72;5067347;28;46324;-67
2023/07/26 11:08:02;;;;;;;;;1.00;1.00;;;;;23.23;35.62;101029.50;5068350;28;45041;-65
2023/07/26 11:10:33;;;;;;;;;2.00;2.00;;;;;23.22;35.49;101024.97;5064690;28;45282;-67
2023/07/26 11:13:18;;;;;;;;;4.00;3.33;;;;;23.29;35.88;101020.28;5063399;28;45645;-66
2023/07/26 11:15:49;;;;;;;;;1.00;1.00;;;;;23.35;35.85;101023.75;5061882;28;45526;-66
2023/07/26 11:18:16;;;;;;;;;2.00;1.00;;;;;23.36;35.95;101025.56;5070220;28;45075;-65
2023/07/26 11:20:46;;;;;;;;;3.33;2.00;;;;;23.14;36.03;100967.00;5041697;28;45228;-65